Time;durP1;ratioP1;P1;durP2;ratioP2;P2;SDS_P1;SDS_P2;PMS_P1;PMS_P2;Temp;Humidity;BMP_temperature;BMP_pressure;BME280_temperature;BME280_humidity;BME280_pressure;Samples;Min_cycle;Max_cycle;Signal;HPM_P1;HPM_P2
2023/10/26 00:01:21;;;;;;;0.63;0.50;;;10.30;99.90;;;;;;5085142;28;21207;-72
2023/10/26 00:03:48;;;;;;;1.63;0.90;;;10.30;99.90;;;;;;5086511;28;20637;-72
2023/10/26 00:06:15;;;;;;;0.60;0.50;;;10.40;99.90;;;;;;5088320;28;20625;-72
2023/10/26 00:08:42;;;;;;;0.57;0.57;;;10.40;99.90;;;;;;5082934;28;20661;-72
2023/10/26 00:11:08;;;;;;;0.60;0.50;;;10.40;99.90;;;;;;5085706;28;20621;-72
2023/10/26 00:13:35;;;;;;;1.13;0.70;;;10.50;99.90;;;;;;5091592;28;20635;-72
2023/10/26 00:16:04;;;;;;;0.47;0.47;;;10.40;99.90;;;;;;5087102;28;20629;-72
2023/10/26 00:18:31;;;;;;;1.27;0.90;;;10.50;99.90;;;;;;5089390;28;20620;-72
2023/10/26 00:20:58;;;;;;;0.63;0.63;;;10.50;99.90;;;;;;5088573;28;21363;-72
2023/10/26 00:23:25;;;;;;;0.60;0.50;;;10.50;99.90;;;;;;5099863;28;20727;-72
2023/10/26 00:25:52;;;;;;;0.97;0.77;;;10.60;99.90;;;;;;5085922;28;21172;-72
2023/10/26 00:28:21;;;;;;;2.20;0.70;;;10.60;99.90;;;;;;5085951;28;20794;-72
2023/10/26 00:30:47;;;;;;;0.50;0.50;;;10.50;99.90;;;;;;5087145;28;20635;-72
2023/10/26 00:33:16;;;;;;;1.93;0.60;;;10.50;99.90;;;;;;5086217;28;20625;-72
2023/10/26 00:35:42;;;;;;;0.80;0.60;;;10.60;99.90;;;;;;5086547;28;20613;-72
2023/10/26 00:38:09;;;;;;;0.70;0.43;;;10.50;99.90;;;;;;5086259;28;20641;-72
2023/10/26 00:40:36;;;;;;;0.63;0.50;;;10.50;99.90;;;;;;5078664;28;21186;-72
2023/10/26 00:43:04;;;;;;;0.70;0.70;;;10.60;99.90;;;;;;5086452;28;21181;-73
2023/10/26 00:45:36;;;;;;;0.53;0.53;;;10.60;99.90;;;;;;5085234;28;20628;-73
2023/10/26 00:48:03;;;;;;;0.90;0.90;;;10.60;99.90;;;;;;5084513;28;20670;-73
2023/10/26 00:50:31;;;;;;;0.60;0.50;;;10.50;99.90;;;;;;5086324;28;20621;-73
2023/10/26 00:53:00;;;;;;;0.87;0.60;;;10.50;99.90;;;;;;5090834;28;20621;-72
2023/10/26 00:55:27;;;;;;;1.93;1.27;;;10.40;99.90;;;;;;5086391;28;20630;-72
2023/10/26 00:57:55;;;;;;;1.10;0.97;;;10.40;99.90;;;;;;5086028;28;21206;-73
2023/10/26 01:00:22;;;;;;;0.80;0.70;;;10.30;99.90;;;;;;5089466;28;20660;-72
2023/10/26 01:02:49;;;;;;;0.70;0.60;;;10.30;99.90;;;;;;5085337;28;20724;-72
2023/10/26 01:05:16;;;;;;;0.50;0.50;;;10.30;99.90;;;;;;5085449;28;20724;-72
2023/10/26 01:07:44;;;;;;;0.83;0.80;;;10.20;99.90;;;;;;5085527;28;20657;-73
2023/10/26 01:10:12;;;;;;;1.40;0.50;;;10.20;99.90;;;;;;5085433;28;21072;-72
2023/10/26 01:12:40;;;;;;;0.80;0.80;;;10.10;99.90;;;;;;5085322;28;20632;-73
2023/10/26 01:15:10;;;;;;;0.67;0.57;;;10.20;99.90;;;;;;5087356;28;20711;-72
2023/10/26 01:17:37;;;;;;;0.70;0.70;;;10.10;99.90;;;;;;5090708;28;20636;-72
2023/10/26 01:20:07;;;;;;;0.50;0.40;;;10.20;99.90;;;;;;5086298;28;20664;-72
2023/10/26 01:22:36;;;;;;;0.70;0.70;;;10.20;99.90;;;;;;5079072;28;20641;-72
2023/10/26 01:25:04;;;;;;;2.30;1.20;;;10.10;99.90;;;;;;5085869;28;20629;-73
2023/10/26 01:27:31;;;;;;;0.60;0.50;;;10.10;99.90;;;;;;5077860;28;20737;-72
2023/10/26 01:30:00;;;;;;;0.60;0.60;;;10.10;99.90;;;;;;5094963;28;20734;-72
2023/10/26 01:32:29;;;;;;;0.57;0.50;;;10.00;99.90;;;;;;5084869;28;20661;-72
2023/10/26 01:34:58;;;;;;;0.87;0.60;;;10.00;99.90;;;;;;5086220;28;20741;-72
2023/10/26 01:37:28;;;;;;;1.47;0.63;;;10.00;99.90;;;;;;5085583;28;20667;-72
2023/10/26 01:39:57;;;;;;;0.53;0.47;;;9.90;99.90;;;;;;5085104;28;20735;-72
2023/10/26 01:42:27;;;;;;;1.57;0.90;;;9.80;99.90;;;;;;5085591;28;20644;-72
2023/10/26 01:44:55;;;;;;;1.37;0.60;;;9.80;99.90;;;;;;5085975;28;20842;-72
2023/10/26 01:47:23;;;;;;;1.70;0.60;;;9.80;99.90;;;;;;5085381;28;20639;-72
2023/10/26 01:49:51;;;;;;;0.70;0.70;;;9.90;99.90;;;;;;5085663;28;20640;-72
2023/10/26 01:52:23;;;;;;;0.40;0.40;;;9.80;99.90;;;;;;5087608;28;20733;-72
2023/10/26 01:54:51;;;;;;;1.80;0.70;;;9.80;99.90;;;;;;5079425;28;21052;-72
2023/10/26 01:57:21;;;;;;;0.97;0.80;;;9.70;99.90;;;;;;5086086;28;21213;-72
2023/10/26 01:59:49;;;;;;;0.63;0.63;;;9.70;99.90;;;;;;5088020;28;21287;-72
2023/10/26 02:02:18;;;;;;;0.50;0.50;;;9.80;99.90;;;;;;5089520;28;21069;-72
2023/10/26 02:04:46;;;;;;;0.50;0.50;;;9.70;99.90;;;;;;5089104;28;20729;-72
2023/10/26 02:07:13;;;;;;;0.93;0.50;;;9.70;99.90;;;;;;5093922;28;21524;-72
2023/10/26 02:09:42;;;;;;;0.57;0.57;;;9.70;99.90;;;;;;5089373;28;21024;-72
2023/10/26 02:12:09;;;;;;;2.70;1.20;;;9.70;99.90;;;;;;5089429;28;20636;-72
2023/10/26 02:14:39;;;;;;;2.57;0.93;;;9.70;99.90;;;;;;5089002;28;21129;-72
2023/10/26 02:17:06;;;;;;;0.70;0.70;;;9.60;99.90;;;;;;5088293;28;20629;-72
2023/10/26 02:19:33;;;;;;;0.40;0.40;;;9.60;99.90;;;;;;5088958;28;20731;-71
2023/10/26 02:21:59;;;;;;;1.37;0.87;;;9.60;99.90;;;;;;5090801;28;20625;-72
2023/10/26 02:24:26;;;;;;;0.80;0.63;;;9.60;99.90;;;;;;5094339;28;21163;-72
2023/10/26 02:26:53;;;;;;;0.83;0.80;;;9.60;99.90;;;;;;5093346;28;21024;-72
2023/10/26 02:29:20;;;;;;;0.57;0.57;;;9.60;99.90;;;;;;5093191;28;20675;-71
2023/10/26 02:31:52;;;;;;;1.00;0.90;;;9.50;99.90;;;;;;5098300;28;20632;-72
2023/10/26 02:34:20;;;;;;;1.00;0.80;;;9.40;99.90;;;;;;5103683;28;20623;-72
2023/10/26 02:36:48;;;;;;;1.23;1.07;;;9.40;99.90;;;;;;5096307;28;20641;-72
2023/10/26 02:39:16;;;;;;;4.03;1.47;;;9.40;99.90;;;;;;5099613;28;21197;-72
2023/10/26 02:41:43;;;;;;;1.27;0.93;;;9.30;99.90;;;;;;5088583;28;20629;-72
2023/10/26 02:44:11;;;;;;;8.03;2.63;;;9.30;99.90;;;;;;5088464;28;21189;-72
2023/10/26 02:46:38;;;;;;;0.80;0.80;;;9.40;99.90;;;;;;5087404;28;20625;-72
2023/10/26 02:49:07;;;;;;;1.33;0.83;;;9.30;99.90;;;;;;5090323;28;20668;-72
2023/10/26 02:51:35;;;;;;;0.57;0.57;;;9.40;99.90;;;;;;5089222;28;20624;-72
2023/10/26 02:54:03;;;;;;;2.40;1.03;;;9.30;99.90;;;;;;5088742;28;20625;-72
2023/10/26 02:56:31;;;;;;;1.90;0.83;;;9.30;99.90;;;;;;5086386;28;21083;-72
2023/10/26 02:58:58;;;;;;;0.70;0.70;;;9.30;99.90;;;;;;5089304;28;20628;-72
2023/10/26 03:01:33;;;;;;;1.10;0.87;;;9.30;99.90;;;;;;5087629;28;20714;-72
2023/10/26 03:04:03;;;;;;;0.60;0.60;;;9.30;99.90;;;;;;5084372;28;20630;-72
2023/10/26 03:06:38;;;;;;;1.93;1.30;;;9.20;99.90;;;;;;5087643;28;20656;-72
2023/10/26 03:09:08;;;;;;;0.60;0.60;;;9.20;99.90;;;;;;5088936;28;20660;-72
2023/10/26 03:11:36;;;;;;;1.30;0.97;;;9.20;99.90;;;;;;5082835;28;20629;-73
2023/10/26 03:14:04;;;;;;;3.40;0.67;;;9.20;99.90;;;;;;5087645;28;21205;-72
2023/10/26 03:16:33;;;;;;;0.60;0.60;;;9.10;99.90;;;;;;5087536;28;20628;-72
2023/10/26 03:19:00;;;;;;;0.70;0.70;;;9.10;99.90;;;;;;5093914;28;20628;-72
2023/10/26 03:21:29;;;;;;;0.80;0.80;;;9.10;99.90;;;;;;5087927;28;20640;-72
2023/10/26 03:23:58;;;;;;;1.33;1.03;;;9.10;99.90;;;;;;5088083;28;20989;-72
2023/10/26 03:26:26;;;;;;;1.17;1.07;;;9.10;99.90;;;;;;5093401;28;21228;-72
2023/10/26 03:28:53;;;;;;;0.97;0.97;;;9.10;99.90;;;;;;5087775;28;21044;-72
2023/10/26 03:31:20;;;;;;;0.60;0.60;;;9.10;99.90;;;;;;5087563;28;20633;-72
2023/10/26 03:33:47;;;;;;;0.97;0.97;;;9.10;99.90;;;;;;5087580;28;20636;-72
2023/10/26 03:36:14;;;;;;;0.60;0.60;;;9.10;99.90;;;;;;5087064;28;20633;-72
2023/10/26 03:38:41;;;;;;;1.20;1.10;;;9.10;99.90;;;;;;5086970;28;20632;-72
2023/10/26 03:41:10;;;;;;;0.97;0.90;;;9.10;99.90;;;;;;5087450;28;21195;-72
2023/10/26 03:43:36;;;;;;;0.97;0.90;;;9.10;99.90;;;;;;5080398;28;20625;-72
2023/10/26 03:46:04;;;;;;;1.30;1.00;;;9.10;99.90;;;;;;5088193;28;20648;-72
2023/10/26 03:48:32;;;;;;;0.90;0.90;;;9.00;99.90;;;;;;5081428;28;20704;-72
2023/10/26 03:50:59;;;;;;;3.40;0.90;;;9.00;99.90;;;;;;5087189;28;20631;-72
2023/10/26 03:53:26;;;;;;;1.00;1.00;;;9.00;99.90;;;;;;5086481;28;20732;-73
2023/10/26 03:55:53;;;;;;;0.97;0.97;;;9.10;99.90;;;;;;5087248;28;20636;-73
2023/10/26 03:58:21;;;;;;;1.30;1.20;;;9.10;99.90;;;;;;5087786;28;20621;-72
2023/10/26 04:00:49;;;;;;;0.90;0.77;;;9.20;99.90;;;;;;5091167;28;21177;-72
2023/10/26 04:03:16;;;;;;;0.70;0.70;;;9.20;99.90;;;;;;5086930;28;20668;-72
2023/10/26 04:05:43;;;;;;;0.80;0.80;;;9.20;99.90;;;;;;5094348;28;20713;-72
2023/10/26 04:08:09;;;;;;;0.80;0.77;;;9.30;99.90;;;;;;5085854;28;20716;-72
2023/10/26 04:10:36;;;;;;;0.97;0.90;;;9.20;99.90;;;;;;5087207;28;20901;-72
2023/10/26 04:13:03;;;;;;;0.90;0.90;;;9.10;99.90;;;;;;5087159;28;20628;-72
2023/10/26 04:15:32;;;;;;;1.10;0.80;;;9.10;99.90;;;;;;5089983;28;21007;-72
2023/10/26 04:18:00;;;;;;;0.97;0.83;;;9.10;99.90;;;;;;5095940;28;20625;-72
2023/10/26 04:20:27;;;;;;;1.47;1.10;;;9.10;99.90;;;;;;5086000;28;20631;-72
2023/10/26 04:22:53;;;;;;;0.80;0.80;;;9.20;99.90;;;;;;5086736;28;20970;-72
2023/10/26 04:25:21;;;;;;;1.87;1.27;;;9.20;99.90;;;;;;5086695;28;20629;-72
2023/10/26 04:27:48;;;;;;;1.70;0.83;;;9.10;99.90;;;;;;5084852;28;21366;-72
2023/10/26 04:30:15;;;;;;;0.97;0.73;;;9.10;99.90;;;;;;5085395;28;20675;-72
2023/10/26 04:32:43;;;;;;;3.03;1.27;;;9.20;99.90;;;;;;5084559;28;20636;-72
2023/10/26 04:35:10;;;;;;;0.70;0.63;;;9.20;99.90;;;;;;5085054;28;20674;-72
2023/10/26 04:37:37;;;;;;;0.67;0.67;;;9.20;99.90;;;;;;5085277;28;20830;-72
2023/10/26 04:40:05;;;;;;;0.77;0.77;;;9.20;99.90;;;;;;5084588;28;20625;-72
2023/10/26 04:42:32;;;;;;;1.00;0.90;;;9.10;99.90;;;;;;5087052;28;21153;-70
2023/10/26 04:44:59;;;;;;;0.50;0.50;;;9.00;99.90;;;;;;5092337;28;20633;-71
2023/10/26 04:47:26;;;;;;;1.57;0.90;;;9.10;99.90;;;;;;5086000;28;20631;-72
2023/10/26 04:49:54;;;;;;;0.87;0.83;;;9.20;99.90;;;;;;5085895;28;21335;-72
2023/10/26 04:52:21;;;;;;;0.70;0.70;;;9.10;99.90;;;;;;5086465;28;21182;-71
2023/10/26 04:54:48;;;;;;;1.33;1.10;;;9.20;99.90;;;;;;5091760;28;20657;-72
2023/10/26 04:57:15;;;;;;;0.63;0.63;;;9.20;99.90;;;;;;5086288;28;20621;-72
2023/10/26 04:59:42;;;;;;;1.80;1.20;;;9.20;99.90;;;;;;5086492;28;20629;-72
2023/10/26 05:02:09;;;;;;;0.83;0.83;;;9.20;99.90;;;;;;5085827;28;20635;-72
2023/10/26 05:04:36;;;;;;;2.53;1.10;;;9.20;99.90;;;;;;5087445;28;21245;-72
2023/10/26 05:07:04;;;;;;;1.40;1.30;;;9.20;99.90;;;;;;5079192;28;21193;-70
2023/10/26 05:09:31;;;;;;;0.83;0.83;;;9.20;99.90;;;;;;5085977;28;21220;-71
2023/10/26 05:11:58;;;;;;;1.67;1.20;;;9.20;99.90;;;;;;5086407;28;20656;-71
2023/10/26 05:14:24;;;;;;;1.53;0.90;;;9.20;99.90;;;;;;5089269;28;20628;-71
2023/10/26 05:16:51;;;;;;;1.13;0.80;;;9.20;99.90;;;;;;5084870;28;20984;-71
2023/10/26 05:19:18;;;;;;;1.10;0.80;;;9.20;99.90;;;;;;5086328;28;20617;-71
2023/10/26 05:21:45;;;;;;;1.47;0.70;;;9.20;99.90;;;;;;5086518;28;21024;-70
2023/10/26 05:24:13;;;;;;;0.90;0.90;;;9.10;99.90;;;;;;5086146;28;20863;-72
2023/10/26 05:26:40;;;;;;;0.70;0.70;;;9.10;99.90;;;;;;5085778;28;20616;-71
2023/10/26 05:29:07;;;;;;;0.80;0.70;;;9.10;99.90;;;;;;5085199;28;20667;-71
2023/10/26 05:31:33;;;;;;;0.60;0.60;;;9.10;99.90;;;;;;5084814;28;21026;-71
2023/10/26 05:34:00;;;;;;;0.73;0.73;;;9.00;99.90;;;;;;5090762;28;20990;-71
2023/10/26 05:36:27;;;;;;;1.33;1.23;;;9.00;99.90;;;;;;5104453;28;20632;-71
2023/10/26 05:38:54;;;;;;;1.63;0.87;;;9.00;99.90;;;;;;5089828;28;20629;-71
2023/10/26 05:41:22;;;;;;;1.40;1.20;;;9.00;99.90;;;;;;5089735;28;20980;-71
2023/10/26 05:43:49;;;;;;;1.60;1.30;;;9.10;99.90;;;;;;5088119;28;20617;-72
2023/10/26 05:46:17;;;;;;;1.20;0.73;;;9.10;99.90;;;;;;5081965;28;20797;-72
2023/10/26 05:48:44;;;;;;;1.40;1.30;;;9.10;99.90;;;;;;5089486;28;20636;-72
2023/10/26 05:51:11;;;;;;;1.63;1.27;;;9.20;99.90;;;;;;5089909;28;20621;-72
2023/10/26 05:53:38;;;;;;;1.83;1.73;;;9.20;99.90;;;;;;5089824;28;20629;-72
2023/10/26 05:56:05;;;;;;;2.00;1.80;;;9.30;99.90;;;;;;5089779;28;21327;-72
2023/10/26 05:58:33;;;;;;;1.80;1.70;;;9.30;99.90;;;;;;5089056;28;20609;-72
2023/10/26 06:01:00;;;;;;;1.70;1.60;;;9.40;99.90;;;;;;5089701;28;21217;-72
2023/10/26 06:03:27;;;;;;;2.90;2.10;;;9.40;99.90;;;;;;5089775;28;21200;-72
2023/10/26 06:05:59;;;;;;;1.87;1.77;;;9.40;99.90;;;;;;5089465;28;21185;-72
2023/10/26 06:08:26;;;;;;;1.50;1.40;;;9.50;99.90;;;;;;5089044;28;20988;-72
2023/10/26 06:10:53;;;;;;;2.47;2.07;;;9.50;99.90;;;;;;5088719;28;21133;-72
2023/10/26 06:13:20;;;;;;;1.63;1.53;;;9.50;99.90;;;;;;5089819;28;20629;-72
2023/10/26 06:15:48;;;;;;;1.47;1.37;;;9.60;99.90;;;;;;5089339;28;20963;-72
2023/10/26 06:18:15;;;;;;;1.87;1.63;;;9.60;99.90;;;;;;5089202;28;20624;-72
2023/10/26 06:20:41;;;;;;;1.40;1.30;;;9.70;99.90;;;;;;5089452;28;20716;-72
2023/10/26 06:23:09;;;;;;;1.17;1.00;;;9.70;99.90;;;;;;5089418;28;20621;-72
2023/10/26 06:25:36;;;;;;;1.90;1.80;;;9.70;99.90;;;;;;5088664;28;20641;-72
2023/10/26 06:28:04;;;;;;;1.37;1.20;;;9.70;99.90;;;;;;5088799;28;20716;-72
2023/10/26 06:30:31;;;;;;;1.80;1.67;;;9.70;99.90;;;;;;5089825;28;21307;-72
2023/10/26 06:33:00;;;;;;;2.00;1.60;;;9.80;99.90;;;;;;5088076;28;20739;-72
2023/10/26 06:35:27;;;;;;;1.27;1.17;;;9.80;99.90;;;;;;5088968;28;20627;-72
2023/10/26 06:37:54;;;;;;;1.57;1.47;;;9.80;99.90;;;;;;5088007;28;20629;-72
2023/10/26 06:40:21;;;;;;;2.10;1.17;;;9.90;99.90;;;;;;5088597;28;20620;-72
2023/10/26 06:42:47;;;;;;;1.10;1.00;;;9.90;99.90;;;;;;5089061;28;20720;-72
2023/10/26 06:45:14;;;;;;;1.30;1.20;;;9.90;99.90;;;;;;5088792;28;20621;-72
2023/10/26 06:47:41;;;;;;;3.50;2.67;;;9.90;99.90;;;;;;5080936;28;20627;-72
2023/10/26 06:50:12;;;;;;;2.50;2.23;;;9.90;99.90;;;;;;5092949;28;20699;-72
2023/10/26 06:52:38;;;;;;;1.43;1.33;;;9.90;99.90;;;;;;5079814;28;20617;-72
2023/10/26 06:55:06;;;;;;;1.63;1.53;;;10.00;99.90;;;;;;5088820;28;20724;-72
2023/10/26 06:57:35;;;;;;;2.07;1.90;;;10.00;99.90;;;;;;5088320;28;21035;-72
2023/10/26 07:00:02;;;;;;;1.40;1.30;;;9.90;99.90;;;;;;5088700;28;20691;-72
2023/10/26 07:02:30;;;;;;;1.70;1.60;;;10.00;99.90;;;;;;5088843;28;21268;-72
2023/10/26 07:04:56;;;;;;;2.13;1.90;;;10.00;99.90;;;;;;5088040;28;20629;-72
2023/10/26 07:07:25;;;;;;;2.40;1.67;;;10.00;99.90;;;;;;5087672;28;20631;-72
2023/10/26 07:09:52;;;;;;;1.60;1.50;;;10.10;99.90;;;;;;5088460;28;20763;-72
2023/10/26 07:12:19;;;;;;;2.10;1.90;;;10.10;99.90;;;;;;5088656;28;20613;-72
2023/10/26 07:14:46;;;;;;;1.50;1.40;;;10.10;99.90;;;;;;5088128;28;20633;-71
2023/10/26 07:17:13;;;;;;;1.70;1.60;;;10.20;99.90;;;;;;5087800;28;20625;-71
2023/10/26 07:19:39;;;;;;;1.50;1.40;;;10.30;99.90;;;;;;5087420;28;20624;-71
2023/10/26 07:22:06;;;;;;;1.33;1.23;;;10.30;99.90;;;;;;5086396;28;20628;-71
2023/10/26 07:24:35;;;;;;;1.57;1.00;;;10.30;99.90;;;;;;5082515;28;20614;-71
2023/10/26 07:27:02;;;;;;;1.60;1.40;;;10.40;99.90;;;;;;5087502;28;20635;-71
2023/10/26 07:29:29;;;;;;;1.57;1.23;;;10.40;99.90;;;;;;5088280;28;20648;-71
2023/10/26 07:31:56;;;;;;;2.40;1.10;;;10.50;99.90;;;;;;5087807;28;20627;-71
2023/10/26 07:34:23;;;;;;;1.20;1.10;;;10.50;99.90;;;;;;5087177;28;20734;-71
2023/10/26 07:36:50;;;;;;;0.97;0.90;;;10.50;99.90;;;;;;5087477;28;20704;-72
2023/10/26 07:39:17;;;;;;;1.77;1.67;;;10.60;99.90;;;;;;5087787;28;20625;-71
2023/10/26 07:41:45;;;;;;;3.80;0.90;;;10.60;99.90;;;;;;5087792;28;20623;-71
2023/10/26 07:44:12;;;;;;;1.40;1.30;;;10.50;99.90;;;;;;5087743;28;21224;-71
2023/10/26 07:46:38;;;;;;;3.43;1.30;;;10.60;99.90;;;;;;5078823;28;20984;-71
2023/10/26 07:49:05;;;;;;;2.67;1.33;;;10.70;99.90;;;;;;5088279;28;21046;-72
2023/10/26 07:51:32;;;;;;;0.97;0.97;;;10.70;99.90;;;;;;5087660;28;20683;-72
2023/10/26 07:53:59;;;;;;;1.20;1.20;;;10.70;99.90;;;;;;5087678;28;20632;-71
2023/10/26 07:56:26;;;;;;;0.80;0.80;;;10.80;99.90;;;;;;5087105;28;20623;-71
2023/10/26 07:58:54;;;;;;;1.10;1.00;;;10.70;99.90;;;;;;5087033;28;20629;-71
2023/10/26 08:01:21;;;;;;;2.50;1.13;;;10.80;99.90;;;;;;5087557;28;20669;-71
2023/10/26 08:03:48;;;;;;;1.63;0.73;;;10.80;99.90;;;;;;5087557;28;20628;-71
2023/10/26 08:06:15;;;;;;;0.80;0.80;;;10.80;99.90;;;;;;5087448;28;20621;-71
2023/10/26 08:08:42;;;;;;;1.60;1.13;;;10.90;99.90;;;;;;5086933;28;20625;-71
2023/10/26 08:11:10;;;;;;;2.30;1.27;;;10.90;99.90;;;;;;5087537;28;20668;-71
2023/10/26 08:13:37;;;;;;;1.03;0.93;;;11.00;99.90;;;;;;5087589;28;20631;-73
2023/10/26 08:16:05;;;;;;;0.80;0.80;;;11.00;99.90;;;;;;5086660;28;20976;-72
2023/10/26 08:18:32;;;;;;;0.70;0.70;;;11.00;99.90;;;;;;5087035;28;20617;-72
2023/10/26 08:20:59;;;;;;;2.20;1.40;;;11.00;99.90;;;;;;5087353;28;20620;-72
2023/10/26 08:23:29;;;;;;;0.77;0.77;;;11.00;99.90;;;;;;5087164;28;20627;-72
2023/10/26 08:25:56;;;;;;;0.63;0.63;;;11.00;99.90;;;;;;5087007;28;21702;-72
2023/10/26 08:28:23;;;;;;;1.20;1.10;;;11.10;99.90;;;;;;5085808;28;20692;-72
2023/10/26 08:30:52;;;;;;;1.53;1.37;;;11.10;99.90;;;;;;5086886;28;20667;-72
2023/10/26 08:33:20;;;;;;;1.43;0.87;;;11.10;99.90;;;;;;5086843;28;21239;-72
2023/10/26 08:35:50;;;;;;;1.00;0.90;;;11.10;99.90;;;;;;5087017;28;20617;-72
2023/10/26 08:38:17;;;;;;;1.63;1.53;;;11.10;99.90;;;;;;5085902;28;20624;-72
2023/10/26 08:40:50;;;;;;;2.50;1.43;;;11.20;99.90;;;;;;5085969;28;20616;-72
2023/10/26 08:43:17;;;;;;;3.80;1.30;;;11.20;99.90;;;;;;5084106;28;20628;-72
2023/10/26 08:45:57;;;;;;;1.80;1.40;;;11.20;99.90;;;;;;5086097;28;20632;-72
2023/10/26 08:48:29;;;;;;;1.27;0.90;;;11.20;99.90;;;;;;5084742;28;20625;-72
2023/10/26 08:50:59;;;;;;;1.37;1.27;;;11.40;99.90;;;;;;5085358;28;20714;-72
2023/10/26 08:53:26;;;;;;;1.20;1.10;;;11.50;99.90;;;;;;5085416;28;20750;-72
2023/10/26 08:55:55;;;;;;;2.77;1.47;;;11.50;99.90;;;;;;5083533;28;20625;-72
2023/10/26 08:58:22;;;;;;;0.97;0.97;;;11.60;99.90;;;;;;5085350;28;21165;-72
2023/10/26 09:00:51;;;;;;;1.20;1.10;;;11.60;99.90;;;;;;5085764;28;20617;-72
2023/10/26 09:03:21;;;;;;;1.03;0.90;;;11.60;99.90;;;;;;5086191;28;20636;-72
2023/10/26 09:05:56;;;;;;;0.80;0.80;;;11.60;99.90;;;;;;5085281;28;20645;-72
2023/10/26 09:08:26;;;;;;;1.10;1.00;;;11.60;99.90;;;;;;5085474;28;20613;-72
2023/10/26 09:10:53;;;;;;;1.20;1.13;;;11.70;99.90;;;;;;5088894;28;20663;-72
2023/10/26 09:13:24;;;;;;;1.30;1.27;;;11.70;99.90;;;;;;5089962;28;21078;-72
2023/10/26 09:15:53;;;;;;;1.33;1.23;;;11.70;99.90;;;;;;5089747;28;20621;-72
2023/10/26 09:18:21;;;;;;;1.40;1.03;;;11.70;99.90;;;;;;5089165;28;20719;-72
2023/10/26 09:21:04;;;;;;;1.43;1.00;;;11.80;99.90;;;;;;5090118;28;20617;-72
2023/10/26 09:23:32;;;;;;;1.00;1.00;;;11.70;99.90;;;;;;5089679;28;20712;-72
2023/10/26 09:26:00;;;;;;;1.47;0.93;;;11.70;99.90;;;;;;5090459;28;20632;-72
2023/10/26 09:28:26;;;;;;;1.20;0.70;;;11.70;99.90;;;;;;5089205;28;21064;-72
2023/10/26 09:30:59;;;;;;;0.80;0.80;;;11.60;99.90;;;;;;5088270;28;21271;-72
2023/10/26 09:33:27;;;;;;;1.00;0.90;;;11.70;99.90;;;;;;5089637;28;21158;-72
2023/10/26 09:35:54;;;;;;;1.10;1.00;;;11.70;99.90;;;;;;5090082;28;21199;-72
2023/10/26 09:38:35;;;;;;;0.90;0.90;;;11.70;99.90;;;;;;5090010;28;20620;-72
2023/10/26 09:41:05;;;;;;;0.70;0.70;;;11.70;99.90;;;;;;5089163;28;20620;-72
2023/10/26 09:43:32;;;;;;;0.73;0.73;;;11.70;99.90;;;;;;5089123;28;20631;-72
2023/10/26 09:45:59;;;;;;;1.67;1.57;;;11.70;99.90;;;;;;5089338;28;21183;-72
2023/10/26 09:48:27;;;;;;;1.00;0.87;;;11.60;99.90;;;;;;5088923;28;21052;-72
2023/10/26 09:50:54;;;;;;;0.80;0.80;;;11.50;99.90;;;;;;5089343;28;21014;-72
2023/10/26 09:53:22;;;;;;;0.83;0.83;;;11.50;99.90;;;;;;5087636;28;20627;-72
2023/10/26 09:55:51;;;;;;;0.80;0.80;;;11.50;99.90;;;;;;5083941;28;21192;-73
2023/10/26 09:58:19;;;;;;;1.63;0.60;;;11.50;99.90;;;;;;5083043;28;20628;-72
2023/10/26 10:00:45;;;;;;;1.23;0.97;;;11.50;99.90;;;;;;5089149;28;20650;-72
2023/10/26 10:03:13;;;;;;;1.40;0.93;;;11.40;99.90;;;;;;5078468;28;20669;-73
2023/10/26 10:05:42;;;;;;;1.50;1.40;;;11.40;99.90;;;;;;5088201;28;20639;-72
2023/10/26 10:08:09;;;;;;;1.50;1.10;;;11.40;99.90;;;;;;5088273;28;20616;-72
2023/10/26 10:10:36;;;;;;;1.27;1.27;;;11.60;99.90;;;;;;5083714;28;21033;-71
2023/10/26 10:13:05;;;;;;;1.00;0.97;;;11.60;99.90;;;;;;5086991;28;20613;-71
2023/10/26 10:15:38;;;;;;;1.30;1.00;;;11.60;99.90;;;;;;5088271;28;20947;-70
2023/10/26 10:18:05;;;;;;;1.07;1.07;;;11.50;99.90;;;;;;5080609;28;20621;-70
2023/10/26 10:20:33;;;;;;;0.90;0.90;;;11.60;99.90;;;;;;5089459;28;20620;-70
2023/10/26 10:23:01;;;;;;;1.00;1.00;;;11.60;99.90;;;;;;5088800;28;20973;-71
2023/10/26 10:25:58;;;;;;;1.30;1.20;;;11.60;99.90;;;;;;5089067;28;21260;-71
2023/10/26 10:28:48;;;;;;;2.00;1.90;;;11.60;99.90;;;;;;5079736;28;20645;-71
2023/10/26 10:31:23;;;;;;;2.53;2.10;;;11.50;99.90;;;;;;5088396;28;20771;-71
2023/10/26 10:34:02;;;;;;;1.27;1.20;;;11.40;99.90;;;;;;5089070;28;21181;-71
2023/10/26 10:36:29;;;;;;;1.40;1.30;;;11.50;99.90;;;;;;5080437;28;20624;-71
2023/10/26 10:39:23;;;;;;;1.43;1.33;;;11.40;99.90;;;;;;5081249;28;20725;-71
2023/10/26 10:41:51;;;;;;;1.37;1.27;;;11.40;99.90;;;;;;5082564;28;20630;-71
2023/10/26 10:44:21;;;;;;;1.60;1.50;;;11.30;99.90;;;;;;5089147;28;20941;-71
2023/10/26 10:46:48;;;;;;;1.93;1.73;;;11.40;99.90;;;;;;5088554;28;20732;-72
2023/10/26 10:49:16;;;;;;;1.90;1.60;;;11.40;99.90;;;;;;5084338;28;21213;-71
2023/10/26 10:51:44;;;;;;;1.30;1.20;;;11.40;99.90;;;;;;5088610;28;20680;-72
2023/10/26 10:54:12;;;;;;;2.73;1.23;;;11.50;99.90;;;;;;5088155;28;20661;-72
2023/10/26 10:56:40;;;;;;;1.10;1.00;;;11.50;99.90;;;;;;5087196;28;20666;-73
2023/10/26 10:59:17;;;;;;;1.33;1.23;;;11.60;99.90;;;;;;5088063;28;20628;-73
2023/10/26 11:01:46;;;;;;;1.53;1.43;;;11.70;99.90;;;;;;5085273;28;20629;-72
2023/10/26 11:04:14;;;;;;;1.93;1.60;;;11.80;99.90;;;;;;5087801;28;20756;-73
2023/10/26 11:06:45;;;;;;;1.03;0.93;;;11.90;99.90;;;;;;5086821;28;20624;-73
2023/10/26 11:09:26;;;;;;;1.30;1.20;;;11.90;99.90;;;;;;5088252;28;20717;-73
2023/10/26 11:11:54;;;;;;;1.70;0.90;;;11.90;99.90;;;;;;5088132;28;20708;-72
2023/10/26 11:14:21;;;;;;;1.33;1.23;;;12.00;99.90;;;;;;5087527;28;21211;-72
2023/10/26 11:16:50;;;;;;;2.90;1.20;;;12.10;99.90;;;;;;5086366;28;20958;-73
2023/10/26 11:19:17;;;;;;;1.77;1.47;;;12.00;99.90;;;;;;5077442;28;20626;-74
2023/10/26 11:21:44;;;;;;;1.33;1.23;;;12.00;99.90;;;;;;5083305;28;20732;-74
2023/10/26 11:24:11;;;;;;;1.43;1.33;;;12.20;99.90;;;;;;5086836;28;21165;-74
2023/10/26 11:26:38;;;;;;;1.70;1.13;;;12.20;99.90;;;;;;5077864;28;20790;-73
2023/10/26 11:29:05;;;;;;;0.83;0.83;;;12.10;99.90;;;;;;5084995;28;20668;-73
2023/10/26 11:31:36;;;;;;;0.80;0.80;;;12.10;99.90;;;;;;5083490;28;20672;-73
2023/10/26 11:34:08;;;;;;;0.90;0.90;;;12.00;99.90;;;;;;5086897;28;20724;-73
2023/10/26 11:36:36;;;;;;;1.20;1.10;;;12.00;99.90;;;;;;5086133;28;20648;-73
2023/10/26 11:39:03;;;;;;;0.90;0.80;;;12.10;99.90;;;;;;5088982;28;20714;-74
2023/10/26 11:41:30;;;;;;;0.70;0.70;;;12.10;99.90;;;;;;5086629;28;20631;-74
2023/10/26 11:43:58;;;;;;;1.00;0.73;;;12.20;99.90;;;;;;5080688;28;21289;-74
2023/10/26 11:46:33;;;;;;;1.37;1.27;;;12.30;99.90;;;;;;5085501;28;20725;-72
2023/10/26 11:49:00;;;;;;;1.00;1.00;;;12.40;99.90;;;;;;5086589;28;20723;-73
2023/10/26 11:51:29;;;;;;;0.80;0.80;;;12.50;99.90;;;;;;5086109;28;20788;-72
2023/10/26 11:53:56;;;;;;;1.47;1.37;;;12.60;99.90;;;;;;5087261;28;20635;-72
2023/10/26 11:56:23;;;;;;;0.77;0.60;;;12.70;99.90;;;;;;5085488;28;20640;-75
2023/10/26 11:58:50;;;;;;;0.70;0.70;;;12.80;99.90;;;;;;5083286;28;20736;-73
2023/10/26 12:01:17;;;;;;;0.50;0.50;;;12.90;99.90;;;;;;5090388;28;20630;-72
2023/10/26 12:03:48;;;;;;;1.33;0.70;;;13.00;99.90;;;;;;5089144;28;20647;-72
2023/10/26 12:06:14;;;;;;;0.77;0.77;;;13.10;99.90;;;;;;5083346;28;20621;-72
2023/10/26 12:08:43;;;;;;;1.53;1.43;;;13.20;99.90;;;;;;5083670;28;20642;-72
2023/10/26 12:11:11;;;;;;;2.03;1.10;;;13.30;99.90;;;;;;5086887;28;21225;-72
2023/10/26 12:13:39;;;;;;;1.10;1.00;;;13.40;99.90;;;;;;5083281;28;21223;-72
2023/10/26 12:16:06;;;;;;;1.10;1.00;;;13.50;99.90;;;;;;5082080;28;20637;-73
2023/10/26 12:18:37;;;;;;;0.83;0.83;;;13.70;99.90;;;;;;5083358;28;20735;-72
2023/10/26 12:21:04;;;;;;;1.17;1.17;;;13.70;99.90;;;;;;5086113;28;20708;-72
2023/10/26 12:23:31;;;;;;;2.17;1.37;;;13.80;99.90;;;;;;5085945;28;20631;-72
2023/10/26 12:25:59;;;;;;;1.73;1.47;;;13.80;99.90;;;;;;5085383;28;20643;-73
2023/10/26 12:28:27;;;;;;;1.57;1.47;;;13.90;99.90;;;;;;5085147;28;20625;-74
2023/10/26 12:30:54;;;;;;;1.50;1.30;;;14.00;99.90;;;;;;5085524;28;21145;-72
2023/10/26 12:33:21;;;;;;;1.67;1.57;;;14.10;99.90;;;;;;5087887;28;20638;-73
2023/10/26 12:35:47;;;;;;;1.87;1.67;;;14.20;99.90;;;;;;5083961;28;21000;-73
2023/10/26 12:38:15;;;;;;;1.47;1.37;;;14.20;99.90;;;;;;5083275;28;20738;-72
2023/10/26 12:40:42;;;;;;;1.10;1.00;;;14.20;99.90;;;;;;5085011;28;20646;-72
2023/10/26 12:43:10;;;;;;;1.70;1.40;;;14.30;99.90;;;;;;5087534;28;20723;-72
2023/10/26 12:45:37;;;;;;;1.60;1.50;;;14.30;99.90;;;;;;5084635;28;20724;-72
2023/10/26 12:48:04;;;;;;;1.40;1.30;;;14.30;99.90;;;;;;5085130;28;20632;-72
2023/10/26 12:50:30;;;;;;;1.77;1.30;;;14.20;99.90;;;;;;5081296;28;20761;-72
2023/10/26 12:52:57;;;;;;;1.33;1.23;;;14.30;99.90;;;;;;5081360;28;20668;-72
2023/10/26 12:55:24;;;;;;;1.73;1.10;;;14.30;99.90;;;;;;5084802;28;20735;-73